Time;durP1;ratioP1;P1;durP2;ratioP2;P2;SDS_P1;SDS_P2;PMS_P1;PMS_P2;Temp;Humidity;BMP_temperature;BMP_pressure;BME280_temperature;BME280_humidity;BME280_pressure;Samples;Min_cycle;Max_cycle;Signal;HPM_P1;HPM_P2
2022/06/28 00:00:23;;;;;;;;;;;;;;;25.40;43.88;99218.88;1727824;83;20145;-41
2022/06/28 00:02:48;;;;;;;;;;;;;;;25.39;43.84;99219.05;1727843;83;20437;-38
2022/06/28 00:05:14;;;;;;;;;;;;;;;25.33;44.08;99215.23;1727826;82;20108;-38
2022/06/28 00:07:41;;;;;;;;;;;;;;;25.34;43.95;99219.61;1727883;82;20433;-39
2022/06/28 00:10:08;;;;;;;;;;;;;;;25.32;44.17;99214.06;1727792;83;20398;-40
2022/06/28 00:12:35;;;;;;;;;;;;;;;25.31;44.51;99219.97;1727812;83;20108;-39
2022/06/28 00:17:45;;;;;;;;;;;;;;;25.26;44.58;99212.42;1727820;83;20172;-41
2022/06/28 00:20:11;;;;;;;;;;;;;;;25.25;44.34;99214.81;1727913;82;20161;-41
2022/06/28 00:22:37;;;;;;;;;;;;;;;25.22;44.16;99216.47;1727801;83;20414;-39
2022/06/28 00:25:03;;;;;;;;;;;;;;;25.21;43.66;99207.23;1727842;83;20096;-39
2022/06/28 00:27:29;;;;;;;;;;;;;;;25.16;44.69;99209.63;1727828;83;20430;-39
2022/06/28 00:29:55;;;;;;;;;;;;;;;25.12;45.21;99202.94;1727754;82;20117;-41
2022/06/28 00:32:20;;;;;;;;;;;;;;;25.10;44.52;99204.46;1727950;83;20449;-39
2022/06/28 00:34:47;;;;;;;;;;;;;;;25.05;45.20;99205.02;1727811;83;20137;-39
2022/06/28 00:37:13;;;;;;;;;;;;;;;25.04;45.42;99206.54;1727834;83;20176;-39
2022/06/28 00:39:39;;;;;;;;;;;;;;;25.00;45.39;99206.58;1727804;83;20477;-40
2022/06/28 00:42:06;;;;;;;;;;;;;;;25.01;45.02;99208.23;1727841;83;20121;-39
2022/06/28 00:44:32;;;;;;;;;;;;;;;24.99;45.49;99207.58;1727784;82;20116;-41
2022/06/28 00:46:58;;;;;;;;;;;;;;;24.95;45.55;99202.24;1727696;83;20140;-38
2022/06/28 00:49:24;;;;;;;;;;;;;;;24.97;45.53;99205.59;1727792;83;20097;-40
2022/06/28 00:51:50;;;;;;;;;;;;;;;24.91;45.50;99205.28;1727781;83;20108;-40
2022/06/28 00:54:15;;;;;;;;;;;;;;;24.87;45.32;99195.91;1727846;83;20124;-38
2022/06/28 00:56:41;;;;;;;;;;;;;;;24.81;46.07;99197.98;1727833;82;20118;-39
2022/06/28 00:59:07;;;;;;;;;;;;;;;24.80;46.06;99196.30;1727784;83;20116;-40
2022/06/28 01:01:32;;;;;;;;;;;;;;;24.77;46.14;99195.30;1727886;82;20650;-39
2022/06/28 01:03:58;;;;;;;;;;;;;;;24.76;45.96;99192.30;1727792;82;20429;-39
2022/06/28 01:06:24;;;;;;;;;;;;;;;24.74;46.08;99194.33;1727800;82;20129;-40
2022/06/28 01:08:50;;;;;;;;;;;;;;;24.66;46.72;99197.89;1728117;82;20108;-41
2022/06/28 01:11:19;;;;;;;;;;;;;;;24.67;46.49;99192.02;1730855;83;20176;-39
2022/06/28 01:14:00;;;;;;;;;;;;;;;24.67;46.65;99192.02;1730560;83;20448;-39
2022/06/28 01:16:27;;;;;;;;;;;;;;;24.66;46.61;99184.45;1730855;83;20128;-39
2022/06/28 01:18:53;;;;;;;;;;;;;;;24.65;46.78;99188.66;1730734;83;20238;-39
2022/06/28 01:21:18;;;;;;;;;;;;;;;24.61;46.75;99186.00;1730528;83;20205;-38
2022/06/28 01:23:47;;;;;;;;;;;;;;;24.59;46.83;99185.34;1730958;83;20270;-38
2022/06/28 01:26:17;;;;;;;;;;;;;;;24.58;46.65;99184.52;1730661;83;20330;-39
2022/06/28 01:28:43;;;;;;;;;;;;;;;24.56;47.08;99183.00;1731703;83;20140;-39
2022/06/28 01:31:09;;;;;;;;;;;;;;;24.56;47.25;99185.20;1731754;83;20227;-39
2022/06/28 01:33:37;;;;;;;;;;;;;;;24.53;47.43;99185.03;1731710;83;20149;-40
2022/06/28 01:36:05;;;;;;;;;;;;;;;24.51;47.14;99188.38;1731700;83;20117;-40
2022/06/28 01:38:32;;;;;;;;;;;;;;;24.50;47.25;99192.58;1730952;83;20100;-39
2022/06/28 01:40:58;;;;;;;;;;;;;;;24.46;47.62;99193.95;1731634;83;20414;-39
2022/06/28 01:43:24;;;;;;;;;;;;;;;24.48;47.40;99199.98;1731786;83;20110;-39
2022/06/28 01:45:51;;;;;;;;;;;;;;;24.45;47.68;99198.50;1731671;81;20129;-40
2022/06/28 01:48:18;;;;;;;;;;;;;;;24.43;47.61;99205.91;1704540;83;20116;-38
2022/06/28 01:50:46;;;;;;;;;;;;;;;24.42;47.51;99206.08;1716258;83;20132;-38
2022/06/28 01:53:12;;;;;;;;;;;;;;;24.41;47.50;99205.22;1715150;83;20117;-38
2022/06/28 01:55:38;;;;;;;;;;;;;;;24.37;47.61;99201.73;1716027;83;20129;-37
2022/06/28 01:58:04;;;;;;;;;;;;;;;24.36;47.81;99196.88;1715399;83;20133;-38
2022/06/28 02:00:30;;;;;;;;;;;;;;;24.35;47.97;99201.91;1715413;83;20196;-39
2022/06/28 02:02:56;;;;;;;;;;;;;;;24.36;48.01;99198.22;1715168;84;20148;-38
2022/06/28 02:05:22;;;;;;;;;;;;;;;24.37;47.46;99197.19;1715479;83;20137;-37
2022/06/28 02:07:49;;;;;;;;;;;;;;;24.37;47.48;99195.84;1715262;84;20544;-38
2022/06/28 02:10:16;;;;;;;;;;;;;;;24.34;47.97;99189.50;1715268;83;20192;-40
2022/06/28 02:12:42;;;;;;;;;;;;;;;24.33;48.17;99195.88;1716361;84;20406;-39
2022/06/28 02:15:08;;;;;;;;;;;;;;;24.32;47.16;99185.64;1716438;82;20105;-39
2022/06/28 02:17:34;;;;;;;;;;;;;;;24.30;47.99;99191.70;1716314;82;20140;-40
2022/06/28 02:19:59;;;;;;;;;;;;;;;24.29;48.10;99188.67;1716359;83;20117;-40
2022/06/28 02:22:25;;;;;;;;;;;;;;;24.29;47.19;99193.22;1716358;84;20141;-39
2022/06/28 02:24:51;;;;;;;;;;;;;;;24.27;47.77;99183.98;1716301;84;20386;-38
2022/06/28 02:27:17;;;;;;;;;;;;;;;24.26;47.72;99184.98;1716427;84;20460;-39
2022/06/28 02:29:43;;;;;;;;;;;;;;;24.25;47.70;99189.19;1716332;84;20157;-38
2022/06/28 02:32:09;;;;;;;;;;;;;;;24.25;48.00;99188.70;1716461;83;20494;-39
2022/06/28 02:43:00;;;;;;;;;;;;;;;24.25;48.05;99192.73;1758473;77;20095;-39
2022/06/28 02:45:30;;;;;;;;;;;;;;;24.22;48.99;99201.13;1760270;81;20123;-39
2022/06/28 02:47:56;;;;;;;;;;;;;;;24.23;48.93;99192.08;1758405;81;20371;-39
2022/06/28 02:50:22;;;;;;;;;;;;;;;24.24;48.74;99196.93;1758644;82;20169;-39
2022/06/28 02:52:48;;;;;;;;;;;;;;;24.24;48.66;99189.70;1758574;80;20123;-40
2022/06/28 02:55:13;;;;;;;;;;;;;;;24.26;48.46;99198.94;1758559;82;20106;-40
2022/06/28 02:57:39;;;;;;;;;;;;;;;24.25;48.81;99198.59;1758562;82;20111;-38
2022/06/28 03:00:09;;;;;;;;;;;;;;;24.26;48.42;99201.63;1758659;82;20113;-37
2022/06/28 03:02:35;;;;;;;;;;;;;;;24.25;49.08;99201.28;1758388;79;20107;-39
2022/06/28 03:05:06;;;;;;;;;;;;;;;24.23;49.04;99202.82;1758549;82;20107;-39
2022/06/28 03:07:32;;;;;;;;;;;;;;;24.23;48.79;99208.68;1758520;82;20103;-37
2022/06/28 03:09:57;;;;;;;;;;;;;;;24.23;48.74;99209.54;1758528;82;20134;-39
2022/06/28 03:12:23;;;;;;;;;;;;;;;24.25;48.86;99206.65;1758472;82;20110;-38
2022/06/28 03:14:49;;;;;;;;;;;;;;;24.23;49.34;99216.73;1758433;82;20406;-40
2022/06/28 03:17:14;;;;;;;;;;;;;;;24.20;49.54;99203.67;1758411;82;20110;-38
2022/06/28 03:19:40;;;;;;;;;;;;;;;24.22;49.21;99211.05;1758446;81;20134;-38
2022/06/28 03:22:06;;;;;;;;;;;;;;;24.22;49.05;99212.39;1758490;81;20130;-39
2022/06/28 03:24:31;;;;;;;;;;;;;;;24.19;49.63;99222.14;1758482;82;20430;-38
2022/06/28 03:26:57;;;;;;;;;;;;;;;24.18;49.40;99215.11;1758539;82;20107;-39
2022/06/28 03:29:22;;;;;;;;;;;;;;;24.15;49.74;99215.76;1758382;82;20134;-40
2022/06/28 03:31:49;;;;;;;;;;;;;;;24.13;49.77;99207.55;1758391;81;20115;-38
2022/06/28 03:34:15;;;;;;;;;;;;;;;24.05;50.23;99219.17;1758468;82;20114;-38
2022/06/28 03:36:41;;;;;;;;;;;;;;;24.10;50.11;99219.50;1758407;82;20129;-38
2022/06/28 03:39:07;;;;;;;;;;;;;;;24.08;50.26;99206.72;1758399;82;20135;-38
2022/06/28 03:41:32;;;;;;;;;;;;;;;24.11;50.25;99202.87;1758345;81;20150;-38
2022/06/28 03:43:58;;;;;;;;;;;;;;;24.15;49.87;99206.36;1758437;82;20114;-38
2022/06/28 03:46:24;;;;;;;;;;;;;;;24.21;50.19;99198.62;1739931;81;20449;-38
2022/06/28 03:48:49;;;;;;;;;;;;;;;24.23;49.97;99197.93;1724195;83;20165;-40
2022/06/28 03:51:16;;;;;;;;;;;;;;;24.25;50.05;99205.30;1723805;83;20157;-39
2022/06/28 03:53:41;;;;;;;;;;;;;;;24.27;50.42;99197.94;1723700;83;20133;-38
2022/06/28 03:56:08;;;;;;;;;;;;;;;24.26;50.26;99201.63;1724265;83;20195;-39
2022/06/28 03:58:34;;;;;;;;;;;;;;;24.27;50.11;99203.31;1724396;83;20164;-38
2022/06/28 04:01:00;;;;;;;;;;;;;;;24.22;50.40;99197.62;1724180;83;20196;-39
2022/06/28 04:03:25;;;;;;;;;;;;;;;24.25;49.90;99195.91;1724177;83;20134;-37
2022/06/28 04:05:51;;;;;;;;;;;;;;;24.23;50.50;99187.19;1724169;83;20134;-37
2022/06/28 04:08:17;;;;;;;;;;;;;;;24.21;50.66;99196.76;1723524;83;20452;-39
2022/06/28 04:10:44;;;;;;;;;;;;;;;24.27;50.28;99193.91;1723119;83;20188;-39
2022/06/28 04:13:09;;;;;;;;;;;;;;;24.30;50.41;99197.56;1724111;83;20133;-38
2022/06/28 04:15:37;;;;;;;;;;;;;;;24.31;51.03;99192.53;1724110;83;20153;-37
2022/06/28 04:18:03;;;;;;;;;;;;;;;24.35;50.78;99197.88;1724047;83;20197;-39
2022/06/28 04:20:28;;;;;;;;;;;;;;;24.42;50.52;99198.02;1724111;83;20170;-39
2022/06/28 04:22:54;;;;;;;;;;;;;;;24.44;50.47;99197.33;1724132;83;20157;-38
2022/06/28 04:25:20;;;;;;;;;;;;;;;24.48;50.26;99190.06;1724170;83;20137;-37
2022/06/28 04:27:45;;;;;;;;;;;;;;;24.47;50.43;99187.06;1724104;83;20169;-38
2022/06/28 04:30:11;;;;;;;;;;;;;;;24.52;50.33;99179.80;1724083;83;20164;-40
2022/06/28 04:32:37;;;;;;;;;;;;;;;24.56;50.38;99173.59;1724359;83;20165;-39
2022/06/28 04:35:03;;;;;;;;;;;;;;;24.65;50.30;99180.58;1724191;83;20157;-39
2022/06/28 04:37:29;;;;;;;;;;;;;;;24.70;49.71;99179.06;1724174;83;20161;-40
2022/06/28 04:39:55;;;;;;;;;;;;;;;24.72;50.16;99180.20;1701960;83;20456;-38
2022/06/28 04:42:20;;;;;;;;;;;;;;;24.71;50.68;99177.20;1725611;83;20105;-39
2022/06/28 04:44:46;;;;;;;;;;;;;;;24.74;49.96;99171.96;1727582;83;20097;-38
2022/06/28 04:47:11;;;;;;;;;;;;;;;24.70;49.75;99175.52;1727601;82;20441;-39
2022/06/28 04:49:37;;;;;;;;;;;;;;;24.68;50.54;99182.92;1727692;83;20112;-38
2022/06/28 04:52:04;;;;;;;;;;;;;;;24.65;50.33;99173.38;1727552;83;20113;-39
2022/06/28 04:54:29;;;;;;;;;;;;;;;24.65;49.80;99168.48;1727569;83;20113;-39
2022/06/28 04:56:55;;;;;;;;;;;;;;;24.62;51.31;99166.17;1727543;83;20152;-40
2022/06/28 04:59:21;;;;;;;;;;;;;;;24.60;51.24;99158.28;1727569;83;20161;-40
2022/06/28 05:01:47;;;;;;;;;;;;;;;24.61;51.46;99160.45;1727610;83;20429;-37
2022/06/28 05:04:13;;;;;;;;;;;;;;;24.64;51.50;99158.77;1727529;83;20113;-40
2022/06/28 05:06:38;;;;;;;;;;;;;;;24.67;51.79;99151.69;1727564;82;20149;-41
2022/06/28 05:09:04;;;;;;;;;;;;;;;24.71;52.32;99147.63;1727622;83;20412;-40
2022/06/28 05:11:30;;;;;;;;;;;;;;;24.76;51.55;99149.27;1727621;83;20097;-40
2022/06/28 05:13:56;;;;;;;;;;;;;;;24.77;51.68;99157.65;1727581;83;20129;-37
2022/06/28 05:16:22;;;;;;;;;;;;;;;24.77;52.03;99160.34;1727522;83;20104;-40
2022/06/28 05:18:47;;;;;;;;;;;;;;;24.76;51.40;99178.85;1727559;83;20440;-40
2022/06/28 05:21:13;;;;;;;;;;;;;;;24.73;51.60;99192.64;1727329;83;20161;-42
2022/06/28 05:23:39;;;;;;;;;;;;;;;24.64;53.65;99200.44;1726397;83;20132;-39
2022/06/28 05:26:05;;;;;;;;;;;;;;;24.53;55.10;99201.16;1726490;83;20531;-40
2022/06/28 05:28:30;;;;;;;;;;;;;;;24.46;56.11;99197.47;1726577;83;20129;-40
2022/06/28 05:30:56;;;;;;;;;;;;;;;24.41;56.00;99205.22;1726790;83;20171;-40
2022/06/28 05:33:22;;;;;;;;;;;;;;;24.41;55.67;99205.22;1727703;83;20101;-40
2022/06/28 05:35:48;;;;;;;;;;;;;;;24.40;57.47;99194.16;1727693;83;20414;-40
2022/06/28 05:38:13;;;;;;;;;;;;;;;24.30;57.23;99201.59;1727674;83;20160;-40
2022/06/28 05:40:39;;;;;;;;;;;;;;;24.32;56.83;99199.08;1727660;83;20113;-42
2022/06/28 05:43:05;;;;;;;;;;;;;;;24.31;57.03;99197.91;1726183;83;20141;-41
2022/06/28 05:45:30;;;;;;;;;;;;;;;24.34;56.67;99194.88;1724370;83;20559;-40
2022/06/28 05:47:56;;;;;;;;;;;;;;;24.38;57.22;99194.84;1724257;83;20157;-40
2022/06/28 05:50:21;;;;;;;;;;;;;;;24.45;56.63;99202.53;1724267;83;20163;-40
2022/06/28 05:52:47;;;;;;;;;;;;;;;24.51;56.74;99202.33;1724334;83;20470;-39
2022/06/28 05:55:13;;;;;;;;;;;;;;;24.57;55.72;99195.44;1724244;83;20129;-39
2022/06/28 05:57:39;;;;;;;;;;;;;;;24.63;55.43;99205.47;1724338;83;20133;-40
2022/06/28 06:00:06;;;;;;;;;;;;;;;24.62;55.65;99217.26;1724376;83;20513;-41
2022/06/28 06:02:31;;;;;;;;;;;;;;;24.42;55.73;99220.35;1724274;83;20129;-40
2022/06/28 06:04:59;;;;;;;;;;;;;;;24.45;55.80;99230.77;1724242;83;20133;-41
2022/06/28 06:07:25;;;;;;;;;;;;;;;24.46;56.13;99228.38;1724227;83;20169;-42
2022/06/28 06:09:51;;;;;;;;;;;;;;;24.49;55.90;99233.42;1724173;83;20157;-40
2022/06/28 06:12:16;;;;;;;;;;;;;;;24.55;55.92;99239.14;1724217;83;20142;-40
2022/06/28 06:14:42;;;;;;;;;;;;;;;24.56;55.78;99240.31;1724257;83;20133;-40
2022/06/28 06:17:08;;;;;;;;;;;;;;;24.59;56.20;99225.16;1724232;83;20450;-39
2022/06/28 06:19:33;;;;;;;;;;;;;;;24.64;56.16;99224.13;1724304;83;20142;-40
2022/06/28 06:21:59;;;;;;;;;;;;;;;24.70;56.17;99218.05;1724335;83;20637;-39
2022/06/28 06:24:24;;;;;;;;;;;;;;;24.63;56.45;99221.60;1724199;83;20137;-39
2022/06/28 06:26:50;;;;;;;;;;;;;;;24.69;56.46;99234.36;1724235;83;20173;-40
2022/06/28 06:29:16;;;;;;;;;;;;;;;24.82;56.49;99233.25;1724482;83;20465;-39
2022/06/28 06:31:41;;;;;;;;;;;;;;;24.87;55.56;99236.25;1724430;83;20204;-40
2022/06/28 06:34:07;;;;;;;;;;;;;;;24.97;55.01;99233.31;1724247;83;20141;-40
2022/06/28 06:36:33;;;;;;;;;;;;;;;25.15;54.89;99225.45;1724283;83;20437;-42
2022/06/28 06:38:58;;;;;;;;;;;;;;;25.32;54.15;99232.39;1724195;83;20405;-42
2022/06/28 06:41:24;;;;;;;;;;;;;;;25.43;53.62;99223.91;1724214;83;20153;-41
2022/06/28 06:43:52;;;;;;;;;;;;;;;25.54;52.71;99227.16;1724234;82;20643;-41
2022/06/28 06:46:17;;;;;;;;;;;;;;;25.62;52.25;99230.61;1702170;83;20141;-41
2022/06/28 06:48:43;;;;;;;;;;;;;;;25.72;52.12;99240.27;1724271;83;20552;-40
2022/06/28 06:51:09;;;;;;;;;;;;;;;25.71;51.81;99241.31;1724240;83;20141;-40
2022/06/28 06:53:34;;;;;;;;;;;;;;;25.85;52.22;99249.92;1724216;83;20137;-43
2022/06/28 06:56:00;;;;;;;;;;;;;;;25.90;51.75;99250.17;1724298;83;20231;-40
2022/06/28 06:58:25;;;;;;;;;;;;;;;25.79;51.28;99249.29;1724310;83;20591;-41
2022/06/28 07:00:51;;;;;;;;;;;;;;;25.80;51.47;99245.07;1724169;83;20141;-41
2022/06/28 07:03:16;;;;;;;;;;;;;;;25.77;51.49;99244.08;1724205;83;20133;-40
2022/06/28 07:05:42;;;;;;;;;;;;;;;25.67;51.90;99244.36;1724200;83;20129;-39
2022/06/28 07:08:08;;;;;;;;;;;;;;;25.68;51.76;99246.02;1724563;81;20145;-41
2022/06/28 07:10:33;;;;;;;;;;;;;;;25.65;52.04;99243.72;1755764;82;20134;-39
2022/06/28 07:13:01;;;;;;;;;;;;;;;25.60;51.89;99240.73;1756116;82;20109;-45
2022/06/28 07:15:26;;;;;;;;;;;;;;;25.50;52.91;99244.70;1756131;80;20193;-39
2022/06/28 07:17:52;;;;;;;;;;;;;;;25.48;53.01;99251.61;1756111;82;20102;-40
2022/06/28 07:20:18;;;;;;;;;;;;;;;25.44;53.12;99246.27;1754738;82;20660;-39
2022/06/28 07:22:43;;;;;;;;;;;;;;;25.46;53.07;99249.61;1754440;82;20161;-39
2022/06/28 07:25:09;;;;;;;;;;;;;;;25.43;52.76;99245.92;1754671;81;20133;-39
2022/06/28 07:27:35;;;;;;;;;;;;;;;25.36;54.17;99251.22;1754995;80;20129;-39
2022/06/28 07:30:01;;;;;;;;;;;;;;;25.25;54.83;99240.38;1754780;82;20165;-39
2022/06/28 07:32:26;;;;;;;;;;;;;;;25.27;54.18;99236.98;1754760;82;20133;-41
2022/06/28 07:34:52;;;;;;;;;;;;;;;25.27;54.47;99230.78;1754865;82;20125;-42
2022/06/28 07:37:18;;;;;;;;;;;;;;;25.34;55.08;99230.87;1754778;82;20162;-40
2022/06/28 07:39:44;;;;;;;;;;;;;;;25.42;54.25;99231.64;1764132;81;20107;-41
2022/06/28 07:42:09;;;;;;;;;;;;;;;25.41;55.07;99234.50;1760194;82;20113;-40
2022/06/28 07:44:35;;;;;;;;;;;;;;;25.53;54.58;99237.09;1762247;81;20411;-40
2022/06/28 07:47:00;;;;;;;;;;;;;;;25.63;54.56;99247.11;1762364;81;20134;-41
2022/06/28 07:52:33;;;;;;;;;;;;;;;25.66;54.48;99241.33;1762371;81;20102;-41
2022/06/28 07:54:37;;;;;;;;;;;;;;;25.92;53.49;99244.61;1762440;81;20109;-41
2022/06/28 07:57:03;;;;;;;;;;;;;;;26.09;54.20;99245.28;1762399;81;20455;-40
2022/06/28 07:59:29;;;;;;;;;;;;;;;26.22;53.76;99248.17;1762263;81;20130;-39
2022/06/28 08:01:55;;;;;;;;;;;;;;;26.35;53.05;99253.73;1762429;81;20102;-39
2022/06/28 08:04:20;;;;;;;;;;;;;;;26.48;52.52;99250.88;1762434;81;20145;-39
2022/06/28 08:06:46;;;;;;;;;;;;;;;26.55;52.80;99245.05;1762561;81;20161;-39
2022/06/28 08:09:11;;;;;;;;;;;;;;;26.65;52.16;99249.67;1762353;80;20110;-40
2022/06/28 08:11:39;;;;;;;;;;;;;;;26.68;52.07;99245.23;1762441;81;20138;-40
2022/06/28 08:14:04;;;;;;;;;;;;;;;26.75;52.16;99248.84;1762441;81;20436;-38
2022/06/28 08:16:30;;;;;;;;;;;;;;;26.86;51.88;99249.38;1762419;81;20114;-40
2022/06/28 08:18:55;;;;;;;;;;;;;;;26.94;52.26;99258.19;1762396;81;20102;-40
2022/06/28 08:21:22;;;;;;;;;;;;;;;27.08;51.58;99256.97;1762446;81;20121;-40
2022/06/28 08:23:47;;;;;;;;;;;;;;;27.22;51.07;99263.34;1762450;81;20438;-40
2022/06/28 08:26:13;;;;;;;;;;;;;;;27.34;50.67;99267.20;1762482;81;20106;-40
2022/06/28 08:28:39;;;;;;;;;;;;;;;27.43;50.81;99259.80;1762458;81;20438;-39
2022/06/28 08:31:04;;;;;;;;;;;;;;;27.50;50.96;99255.29;1762552;81;20102;-39
2022/06/28 08:33:30;;;;;;;;;;;;;;;27.69;50.90;99256.48;1762420;81;20102;-40
2022/06/28 08:35:55;;;;;;;;;;;;;;;27.87;50.90;99258.17;1762477;81;20150;-41
2022/06/28 08:38:21;;;;;;;;;;;;;;;28.07;50.07;99251.56;1762401;81;20103;-41
2022/06/28 08:40:47;;;;;;;;;;;;;;;28.27;49.92;99246.76;1762418;80;20130;-39
2022/06/28 08:43:12;;;;;;;;;;;;;;;28.47;49.27;99249.55;1762475;81;20134;-43
2022/06/28 08:45:38;;;;;;;;;;;;;;;28.73;49.81;99249.38;1762462;81;20398;-41
2022/06/28 08:48:19;;;;;;;;;;;;;;;28.96;48.29;99253.91;1762391;81;20107;-41
2022/06/28 08:50:49;;;;;;;;;;;;;;;29.00;46.84;99255.16;1761280;81;20133;-40
2022/06/28 08:53:14;;;;;;;;;;;;;;;29.16;47.16;99251.27;1762231;81;20451;-40
2022/06/28 08:55:40;;;;;;;;;;;;;;;29.13;46.17;99249.46;1762424;81;20138;-40
2022/06/28 08:58:07;;;;;;;;;;;;;;;29.29;46.76;99249.91;1762427;80;20110;-41
2022/06/28 09:00:33;;;;;;;;;;;;;;;29.47;45.83;99256.56;1762450;81;20399;-42
2022/06/28 09:02:59;;;;;;;;;;;;;;;29.69;45.80;99262.63;1762378;81;20106;-40
2022/06/28 09:05:27;;;;;;;;;;;;;;;29.76;45.21;99264.84;1762452;81;20114;-40
2022/06/28 09:07:54;;;;;;;;;;;;;;;29.82;44.04;99260.45;1762365;81;20107;-40
2022/06/28 09:10:20;;;;;;;;;;;;;;;29.94;44.21;99260.09;1750582;81;20198;-42
2022/06/28 09:12:55;;;;;;;;;;;;;;;30.14;44.67;99266.83;1739036;81;20106;-39
2022/06/28 09:15:19;;;;;;;;;;;;;;;30.32;42.90;99274.28;1749529;82;20111;-39
2022/06/28 09:17:46;;;;;;;;;;;;;;;30.48;42.71;99268.95;1750503;82;20385;-41
2022/06/28 09:20:12;;;;;;;;;;;;;;;30.66;42.81;99276.38;1722407;82;20110;-39
2022/06/28 09:22:40;;;;;;;;;;;;;;;30.90;42.53;99280.22;1750452;82;20103;-41
2022/06/28 09:25:13;;;;;;;;;;;;;;;31.06;40.34;99280.27;1750313;81;20107;-38
2022/06/28 09:27:41;;;;;;;;;;;;;;;31.28;40.86;99280.73;1750247;82;20107;-41
2022/06/28 09:30:12;;;;;;;;;;;;;;;31.55;40.95;99279.21;1750187;82;20114;-39
2022/06/28 09:32:39;;;;;;;;;;;;;;;31.92;40.32;99278.75;1749983;82;20135;-40
2022/06/28 09:35:10;;;;;;;;;;;;;;;32.29;38.90;99283.41;1750189;81;20110;-41
2022/06/28 09:40:19;;;;;;;;;;;;;;;32.96;37.54;99284.78;1750094;81;20103;-37
2022/06/28 09:42:46;;;;;;;;;;;;;;;33.10;38.40;99284.06;1750198;81;20110;-39
2022/06/28 09:45:16;;;;;;;;;;;;;;;33.13;37.11;99290.45;1750215;81;20412;-41
2022/06/28 09:47:46;;;;;;;;;;;;;;;33.39;37.16;99290.56;1750137;82;20107;-39
2022/06/28 09:50:16;;;;;;;;;;;;;;;33.58;37.32;99298.14;1750058;82;20111;-37
2022/06/28 09:52:43;;;;;;;;;;;;;;;33.65;35.53;99293.95;1749343;82;20180;-42
2022/06/28 09:55:09;;;;;;;;;;;;;;;34.15;36.30;99296.20;1750037;82;20130;-39
2022/06/28 09:57:35;;;;;;;;;;;;;;;34.47;34.37;99299.89;1750141;82;20114;-40
2022/06/28 10:00:01;;;;;;;;;;;;;;;35.05;34.93;99299.96;1726583;81;20142;-41
2022/06/28 10:02:27;;;;;;;;;;;;;;;35.27;34.01;99296.02;1726626;81;20410;-41
2022/06/28 10:04:53;;;;;;;;;;;;;;;35.59;32.84;99294.09;1757285;81;20138;-41
2022/06/28 10:07:19;;;;;;;;;;;;;;;35.82;32.52;99295.31;1762023;81;20140;-41
2022/06/28 10:09:45;;;;;;;;;;;;;;;36.02;32.75;99291.20;1762239;80;20406;-40
2022/06/28 10:15:02;;;;;;;;;;;;;;;36.51;31.83;99287.21;1762400;81;20568;-39
2022/06/28 10:17:46;;;;;;;;;;;;;;;36.52;32.61;99295.73;1762466;81;20110;-39
2022/06/28 10:20:15;;;;;;;;;;;;;;;36.01;33.15;99288.19;1762366;81;20122;-38
2022/06/28 10:22:40;;;;;;;;;;;;;;;35.26;33.52;99302.02;1762068;81;20147;-49
2022/06/28 10:25:15;;;;;;;;;;;;;;;34.87;34.38;99299.08;1761503;81;20106;-39
2022/06/28 10:27:47;;;;;;;;;;;;;;;34.70;35.21;99303.68;1745552;82;20143;-42
2022/06/28 10:30:22;;;;;;;;;;;;;;;34.90;35.53;99299.15;1748281;81;20119;-40
2022/06/28 10:32:55;;;;;;;;;;;;;;;34.92;35.49;99306.02;1758499;81;20131;-39
2022/06/28 10:35:36;;;;;;;;;;;;;;;35.17;35.82;99310.30;1762243;81;20145;-39
2022/06/28 10:38:11;;;;;;;;;;;;;;;35.55;35.18;99292.39;1762687;81;20130;-37
2022/06/28 10:40:49;;;;;;;;;;;;;;;35.76;34.03;99303.13;1760213;81;20201;-41
2022/06/28 10:43:33;;;;;;;;;;;;;;;35.98;34.56;99296.89;1762174;81;20102;-36
2022/06/28 10:46:05;;;;;;;;;;;;;;;36.38;33.44;99295.81;1762342;81;20450;-40
2022/06/28 10:48:38;;;;;;;;;;;;;;;36.64;33.95;99290.95;1758376;81;20107;-41
2022/06/28 10:51:03;;;;;;;;;;;;;;;36.80;33.22;99296.62;1724679;81;20110;-39
2022/06/28 10:53:33;;;;;;;;;;;;;;;36.65;32.84;99293.95;1757517;81;20118;-39
2022/06/28 10:56:14;;;;;;;;;;;;;;;36.22;32.95;99295.63;1753496;82;20129;-38
2022/06/28 10:59:09;;;;;;;;;;;;;;;36.06;33.58;99304.69;1756460;81;20157;-37
2022/06/28 11:01:44;;;;;;;;;;;;;;;35.54;33.72;99297.02;1757246;81;20510;-38
2022/06/28 11:04:21;;;;;;;;;;;;;;;35.22;34.63;99295.91;1757524;82;20414;-40
2022/06/28 11:06:59;;;;;;;;;;;;;;;35.20;35.28;99300.80;1757153;81;20134;-41
2022/06/28 11:09:47;;;;;;;;;;;;;;;35.22;35.68;99302.23;1732734;82;20286;-39
2022/06/28 11:12:28;;;;;;;;;;;;;;;35.11;35.89;99303.92;1772982;81;20398;-40
2022/06/28 11:15:02;;;;;;;;;;;;;;;35.52;35.28;99303.27;1749756;81;20099;-40
2022/06/28 11:17:30;;;;;;;;;;;;;;;35.13;36.00;99317.31;1754336;81;20152;-44
2022/06/28 11:20:00;;;;;;;;;;;;;;;34.51;36.44;99305.19;1757923;81;20133;-40
2022/06/28 11:22:41;;;;;;;;;;;;;;;34.01;37.27;99313.34;1755487;81;20249;-38
2022/06/28 11:25:09;;;;;;;;;;;;;;;33.73;39.20;99311.84;1745716;82;20131;-39
2022/06/28 11:27:37;;;;;;;;;;;;;;;33.43;39.54;99316.83;1745823;82;20118;-39
2022/06/28 11:30:05;;;;;;;;;;;;;;;33.83;38.97;99313.47;1745616;82;20099;-38
2022/06/28 11:32:34;;;;;;;;;;;;;;;34.15;37.90;99320.77;1732214;82;20165;-40
2022/06/28 11:35:09;;;;;;;;;;;;;;;34.23;37.94;99312.22;1721245;83;20473;-39
2022/06/28 11:37:59;;;;;;;;;;;;;;;34.70;36.90;99322.25;1721299;83;20137;-40
2022/06/28 11:40:27;;;;;;;;;;;;;;;34.58;36.96;99325.52;1721347;83;20133;-39
2022/06/28 11:43:12;;;;;;;;;;;;;;;34.11;37.20;99320.09;1721339;83;20129;-40
2022/06/28 11:45:43;;;;;;;;;;;;;;;33.90;37.35;99324.27;1724094;83;20927;-40
2022/06/28 11:48:17;;;;;;;;;;;;;;;33.40;38.59;99329.55;1723458;83;20311;-38
2022/06/28 11:50:45;;;;;;;;;;;;;;;32.93;38.91;99330.20;1724154;83;20129;-40
2022/06/28 11:53:12;;;;;;;;;;;;;;;32.47;40.23;99332.42;1749652;80;20108;-39
2022/06/28 11:55:43;;;;;;;;;;;;;;;32.11;41.35;99328.61;1775823;80;20110;-38
2022/06/28 11:58:20;;;;;;;;;;;;;;;31.78;41.30;99335.66;1760287;82;20103;-39
2022/06/28 12:01:06;;;;;;;;;;;;;;;31.67;42.54;99330.45;1759952;82;20107;-40
2022/06/28 12:03:33;;;;;;;;;;;;;;;31.86;42.00;99323.70;1760052;82;20110;-38
2022/06/28 12:06:00;;;;;;;;;;;;;;;31.74;43.07;99336.66;1760374;81;20113;-38
2022/06/28 12:08:50;;;;;;;;;;;;;;;31.66;42.68;99346.44;1760201;82;20165;-39
2022/06/28 12:11:40;;;;;;;;;;;;;;;31.46;43.32;99337.05;1758532;80;20106;-38
2022/06/28 12:14:08;;;;;;;;;;;;;;;31.41;43.58;99340.12;1759478;80;20107;-39
2022/06/28 12:16:37;;;;;;;;;;;;;;;31.19;44.65;99337.21;1760266;81;20111;-40
2022/06/28 12:19:04;;;;;;;;;;;;;;;31.04;45.00;99348.08;1758954;81;20113;-40
2022/06/28 12:21:31;;;;;;;;;;;;;;;30.83;44.92;99345.94;1760184;82;20106;-39
2022/06/28 12:23:58;;;;;;;;;;;;;;;30.61;44.68;99361.15;1760135;82;20106;-38
2022/06/28 12:26:45;;;;;;;;;;;;;;;30.44;44.35;99361.33;1760250;81;20138;-38
2022/06/28 12:29:12;;;;;;;;;;;;;;;30.04;46.81;99367.61;1760374;82;20110;-39
2022/06/28 12:31:40;;;;;;;;;;;;;;;29.72;46.84;99366.53;1760176;82;20407;-40
2022/06/28 12:34:06;;;;;;;;;;;;;;;29.40;48.05;99366.30;1760247;82;20134;-38
2022/06/28 12:36:33;;;;;;;;;;;;;;;29.39;47.77;99367.85;1760025;82;20197;-38
2022/06/28 12:38:58;;;;;;;;;;;;;;;29.23;47.33;99366.34;1759824;82;20142;-39
2022/06/28 12:41:24;;;;;;;;;;;;;;;29.11;46.79;99366.09;1760303;82;20101;-38
2022/06/28 12:43:49;;;;;;;;;;;;;;;29.00;46.41;99354.50;1761061;81;20118;-39
2022/06/28 12:46:15;;;;;;;;;;;;;;;29.01;46.96;99351.56;1768320;81;20126;-37
2022/06/28 12:48:40;;;;;;;;;;;;;;;28.93;47.07;99347.70;1768269;81;20452;-38
2022/06/28 12:51:06;;;;;;;;;;;;;;;29.00;47.10;99373.45;1768329;81;20106;-39
2022/06/28 12:53:32;;;;;;;;;;;;;;;28.99;48.70;99383.95;1768317;81;20106;-41
2022/06/28 12:55:58;;;;;;;;;;;;;;;28.73;50.55;99384.16;1768344;81;20198;-39
2022/06/28 12:58:24;;;;;;;;;;;;;;;28.83;49.48;99400.02;1768243;81;20114;-41
2022/06/28 13:00:50;;;;;;;;;;;;;;;28.43;51.07;99406.52;1767046;81;20548;-41
2022/06/28 13:03:16;;;;;;;;;;;;;;;28.12;52.58;99430.73;1768241;81;20462;-41
2022/06/28 13:05:42;;;;;;;;;;;;;;;28.21;51.49;99419.27;1768318;81;20141;-40
2022/06/28 13:08:09;;;;;;;;;;;;;;;28.01;52.82;99423.98;1768257;81;20109;-41